地図

経路データ

SID SEASON NUMBER BASIN SUBBASIN NAME ISO_TIME NATURE LAT LON WMO_WIND WMO_PRES WMO_AGENCY TRACK_TYPE DIST2LAND LANDFALL IFLAG USA_AGENCY USA_ATCF_ID USA_LAT USA_LON USA_RECORD USA_STATUS USA_WIND USA_PRES USA_SSHS USA_R34_NE USA_R34_SE USA_R34_SW USA_R34_NW USA_R50_NE USA_R50_SE USA_R50_SW USA_R50_NW USA_R64_NE USA_R64_SE USA_R64_SW USA_R64_NW USA_POCI USA_ROCI USA_RMW USA_EYE TOKYO_LAT TOKYO_LON TOKYO_GRADE TOKYO_WIND TOKYO_PRES TOKYO_R50_DIR TOKYO_R50_LONG TOKYO_R50_SHORT TOKYO_R30_DIR TOKYO_R30_LONG TOKYO_R30_SHORT TOKYO_LAND CMA_LAT CMA_LON CMA_CAT CMA_WIND CMA_PRES HKO_LAT HKO_LON HKO_CAT HKO_WIND HKO_PRES NEWDELHI_LAT NEWDELHI_LON NEWDELHI_GRADE NEWDELHI_WIND NEWDELHI_PRES NEWDELHI_CI NEWDELHI_DP NEWDELHI_POCI REUNION_LAT REUNION_LON REUNION_TYPE REUNION_WIND REUNION_PRES REUNION_TNUM REUNION_CI REUNION_RMW REUNION_R34_NE REUNION_R34_SE REUNION_R34_SW REUNION_R34_NW REUNION_R50_NE REUNION_R50_SE REUNION_R50_SW REUNION_R50_NW REUNION_R64_NE REUNION_R64_SE REUNION_R64_SW REUNION_R64_NW BOM_LAT BOM_LON BOM_TYPE BOM_WIND BOM_PRES BOM_TNUM BOM_CI BOM_RMW BOM_R34_NE BOM_R34_SE BOM_R34_SW BOM_R34_NW BOM_R50_NE BOM_R50_SE BOM_R50_SW BOM_R50_NW BOM_R64_NE BOM_R64_SE BOM_R64_SW BOM_R64_NW BOM_ROCI BOM_POCI BOM_EYE BOM_POS_METHOD BOM_PRES_METHOD NADI_LAT NADI_LON NADI_CAT NADI_WIND NADI_PRES WELLINGTON_LAT WELLINGTON_LON WELLINGTON_WIND WELLINGTON_PRES DS824_LAT DS824_LON DS824_STAGE DS824_WIND DS824_PRES TD9636_LAT TD9636_LON TD9636_STAGE TD9636_WIND TD9636_PRES TD9635_LAT TD9635_LON TD9635_WIND TD9635_PRES TD9635_ROCI NEUMANN_LAT NEUMANN_LON NEUMANN_CLASS NEUMANN_WIND NEUMANN_PRES MLC_LAT MLC_LON MLC_CLASS MLC_WIND MLC_PRES USA_GUST BOM_GUST BOM_GUST_PER REUNION_GUST REUNION_GUST_PER USA_SEAHGT USA_SEARAD_NE USA_SEARAD_SE USA_SEARAD_SW USA_SEARAD_NW STORM_SPEED STORM_DIR
1858260N18319 1858 13 NA NA NOT_NAMED 1858-09-17 00:00:00 TS 18.4000 -41.4000 80 hurdat_atl main 1911 1911 O_____________ hurdat_atl AL041858 18.4000 -41.4000 HU 80 1 11 316
1858260N18319 1858 13 NA NA NOT_NAMED 1858-09-17 03:00:00 TS 18.7977 -41.8021 main 1921 1921 P_____________ AL041858 18.7977 -41.8021 HU 80 1 11 317
1858260N18319 1858 13 NA NA NOT_NAMED 1858-09-17 06:00:00 TS 19.2000 -42.2000 80 hurdat_atl main 1931 1931 O_____________ hurdat_atl AL041858 19.2000 -42.2000 HU 80 1 11 317
1858260N18319 1858 13 NA NA NOT_NAMED 1858-09-17 09:00:00 TS 19.6074 -42.5927 main 1942 1942 P_____________ AL041858 19.6074 -42.5927 HU 80 1 11 317
1858260N18319 1858 13 NA NA NOT_NAMED 1858-09-17 12:00:00 TS 20.0000 -43.0000 80 hurdat_atl main 1955 1953 O_____________ hurdat_atl AL041858 20.0000 -43.0000 HU 80 1 11 313
1858260N18319 1858 13 NA NA NOT_NAMED 1858-09-17 15:00:00 TS 20.3348 -43.4281 main 1961 1960 P_____________ AL041858 20.3348 -43.4281 HU 80 1 11 310
1858260N18319 1858 13 NA NA NOT_NAMED 1858-09-17 18:00:00 TS 20.7000 -43.9000 80 hurdat_atl main 1973 1968 O_____________ hurdat_atl AL041858 20.7000 -43.9000 HU 80 1 13 312
1858260N18319 1858 13 NA NA NOT_NAMED 1858-09-17 21:00:00 TS 21.1775 -44.4424 main 1997 1992 P_____________ AL041858 21.1775 -44.4424 HU 80 1 14 314
1858260N18319 1858 13 NA NA NOT_NAMED 1858-09-18 00:00:00 TS 21.7000 -45.0000 80 hurdat_atl main 2019 2019 O_____________ hurdat_atl AL041858 21.7000 -45.0000 HU 80 1 14 316
1858260N18319 1858 13 NA NA NOT_NAMED 1858-09-18 03:00:00 TS 22.2148 -45.5078 main 2048 2048 P_____________ AL041858 22.2148 -45.5078 HU 80 1 14 317
1858260N18319 1858 13 NA NA NOT_NAMED 1858-09-18 06:00:00 TS 22.7000 -46.0000 80 hurdat_atl main 2076 2052 O_____________ hurdat_atl AL041858 22.7000 -46.0000 HU 80 1 13 315
1858260N18319 1858 13 NA NA NOT_NAMED 1858-09-18 09:00:00 TS 23.1222 -46.4855 main 2052 2011 P_____________ AL041858 23.1222 -46.4855 HU 80 1 12 311
1858260N18319 1858 13 NA NA NOT_NAMED 1858-09-18 12:00:00 TS 23.5000 -47.0000 80 hurdat_atl main 2011 1960 O_____________ hurdat_atl AL041858 23.5000 -47.0000 HU 80 1 12 305
1858260N18319 1858 13 NA NA NOT_NAMED 1858-09-18 15:00:00 TS 23.8349 -47.5856 main 1960 1913 P_____________ AL041858 23.8349 -47.5856 HU 80 1 13 303
1858260N18319 1858 13 NA NA NOT_NAMED 1858-09-18 18:00:00 TS 24.2000 -48.2000 80 hurdat_atl main 1913 1872 O_____________ hurdat_atl AL041858 24.2000 -48.2000 HU 80 1 14 308
1858260N18319 1858 13 NA NA NOT_NAMED 1858-09-18 21:00:00 TS 24.6847 -48.7927 main 1872 1834 P_____________ AL041858 24.6847 -48.7927 HU 80 1 15 313
1858260N18319 1858 13 NA NA NOT_NAMED 1858-09-19 00:00:00 TS 25.2000 -49.4000 80 hurdat_atl main 1834 1796 O_____________ hurdat_atl AL041858 25.2000 -49.4000 HU 80 1 15 311
1858260N18319 1858 13 NA NA NOT_NAMED 1858-09-19 03:00:00 TS 25.6573 -50.0430 main 1800 1756 P_____________ AL041858 25.6573 -50.0430 HU 80 1 15 308
1858260N18319 1858 13 NA NA NOT_NAMED 1858-09-19 06:00:00 TS 26.1000 -50.7000 80 hurdat_atl main 1756 1723 O_____________ hurdat_atl AL041858 26.1000 -50.7000 HU 80 1 15 307
1858260N18319 1858 13 NA NA NOT_NAMED 1858-09-19 09:00:00 TS 26.5420 -51.3358 main 1723 1691 P_____________ AL041858 26.5420 -51.3358 HU 80 1 15 308
1858260N18319 1858 13 NA NA NOT_NAMED 1858-09-19 12:00:00 TS 27.0000 -52.0000 80 hurdat_atl main 1691 1658 O_____________ hurdat_atl AL041858 27.0000 -52.0000 HU 80 1 16 307
1858260N18319 1858 13 NA NA NOT_NAMED 1858-09-19 15:00:00 TS 27.4771 -52.7209 main 1664 1634 P_____________ AL041858 27.4771 -52.7209 HU 80 1 17 307
1858260N18319 1858 13 NA NA NOT_NAMED 1858-09-19 18:00:00 TS 28.0000 -53.5000 80 hurdat_atl main 1634 1611 O_____________ hurdat_atl AL041858 28.0000 -53.5000 HU 80 1 18 308
1858260N18319 1858 13 NA NA NOT_NAMED 1858-09-19 21:00:00 TS 28.5695 -54.3211 main 1618 1599 P_____________ AL041858 28.5695 -54.3211 HU 80 1 19 309
1858260N18319 1858 13 NA NA NOT_NAMED 1858-09-20 00:00:00 TS 29.2000 -55.2000 80 hurdat_atl main 1602 1595 O_____________ hurdat_atl AL041858 29.2000 -55.2000 HU 80 1 21 310
1858260N18319 1858 13 NA NA NOT_NAMED 1858-09-20 03:00:00 TS 29.8846 -56.1357 main 1604 1598 P_____________ AL041858 29.8846 -56.1357 HU 80 1 22 310
1858260N18319 1858 13 NA NA NOT_NAMED 1858-09-20 06:00:00 TS 30.6000 -57.1000 80 hurdat_atl main 1607 1501 O_____________ hurdat_atl AL041858 30.6000 -57.1000 HU 80 1 22 310
1858260N18319 1858 13 NA NA NOT_NAMED 1858-09-20 09:00:00 TS 31.3073 -58.0731 main 1498 1393 P_____________ AL041858 31.3073 -58.0731 HU 80 1 21 311
1858260N18319 1858 13 NA NA NOT_NAMED 1858-09-20 12:00:00 TS 32.0000 -59.0000 80 hurdat_atl main 1393 1304 O_____________ hurdat_atl AL041858 32.0000 -59.0000 HU 80 1 20 312
1858260N18319 1858 13 NA NA NOT_NAMED 1858-09-20 15:00:00 TS 32.6644 -59.8461 main 1294 1206 P_____________ AL041858 32.6644 -59.8461 HU 80 1 19 314
1858260N18319 1858 13 NA NA NOT_NAMED 1858-09-20 18:00:00 TS 33.3000 -60.6000 80 hurdat_atl main 1206 1123 O_____________ hurdat_atl AL041858 33.3000 -60.6000 HU 80 1 17 316
1858260N18319 1858 13 NA NA NOT_NAMED 1858-09-20 21:00:00 TS 33.8995 -61.2889 main 1123 1043 P_____________ AL041858 33.8995 -61.2889 HU 80 1 16 318
1858260N18319 1858 13 NA NA NOT_NAMED 1858-09-21 00:00:00 TS 34.5000 -61.9000 80 hurdat_atl main 1043 965 O_____________ hurdat_atl AL041858 34.5000 -61.9000 HU 80 1 16 321
1858260N18319 1858 13 NA NA NOT_NAMED 1858-09-21 03:00:00 TS 35.1499 -62.5025 main 965 879 P_____________ AL041858 35.1499 -62.5025 HU 80 1 16 325
1858260N18319 1858 13 NA NA NOT_NAMED 1858-09-21 06:00:00 TS 35.8000 -63.0000 80 hurdat_atl main 879 806 O_____________ hurdat_atl AL041858 35.8000 -63.0000 HU 80 1 15 331
1858260N18319 1858 13 NA NA NOT_NAMED 1858-09-21 09:00:00 TS 36.4222 -63.3681 main 806 737 P_____________ AL041858 36.4222 -63.3681 HU 80 1 13 338
1858260N18319 1858 13 NA NA NOT_NAMED 1858-09-21 12:00:00 TS 37.0000 -63.6000 80 hurdat_atl main 737 679 O_____________ hurdat_atl AL041858 37.0000 -63.6000 HU 80 1 11 344
1858260N18319 1858 13 NA NA NOT_NAMED 1858-09-21 15:00:00 TS 37.5149 -63.7603 main 679 624 P_____________ AL041858 37.5149 -63.7603 HU 80 1 10 351
1858260N18319 1858 13 NA NA NOT_NAMED 1858-09-21 18:00:00 TS 38.0000 -63.8000 80 hurdat_atl main 624 570 O_____________ hurdat_atl AL041858 38.0000 -63.8000 HU 80 1 10 1
1858260N18319 1858 13 NA NA NOT_NAMED 1858-09-21 21:00:00 TS 38.5000 -63.7452 main 572 520 P_____________ AL041858 38.5000 -63.7452 HU 80 1 10 9
1858260N18319 1858 13 NA NA NOT_NAMED 1858-09-22 00:00:00 TS 39.0000 -63.6000 80 hurdat_atl main 520 469 O_____________ hurdat_atl AL041858 39.0000 -63.6000 HU 80 1 10 13
1858260N18319 1858 13 NA NA NOT_NAMED 1858-09-22 03:00:00 TS 39.4998 -63.4444 main 472 426 P_____________ AL041858 39.4998 -63.4444 HU 80 1 10 17
1858260N18319 1858 13 NA NA NOT_NAMED 1858-09-22 06:00:00 TS 40.0000 -63.2000 80 hurdat_atl main 426 387 O_____________ hurdat_atl AL041858 40.0000 -63.2000 HU 80 1 11 24
1858260N18319 1858 13 NA NA NOT_NAMED 1858-09-22 09:00:00 TS 40.4999 -62.8520 main 387 365 P_____________ AL041858 40.4999 -62.8520 HU 80 1 12 31
1858260N18319 1858 13 NA NA NOT_NAMED 1858-09-22 12:00:00 TS 41.0000 -62.4000 80 hurdat_atl main 365 342 O_____________ hurdat_atl AL041858 41.0000 -62.4000 HU 80 1 12 35
1858260N18319 1858 13 NA NA NOT_NAMED 1858-09-22 15:00:00 TS 41.5066 -61.9237 main 348 323 P_____________ AL041858 41.5066 -61.9237 HU 80 1 13 40
1858260N18319 1858 13 NA NA NOT_NAMED 1858-09-22 18:00:00 TS 42.0000 -61.3000 80 hurdat_atl main 323 299 O_____________ hurdat_atl AL041858 42.0000 -61.3000 HU 80 1 15 48
1858260N18319 1858 13 NA NA NOT_NAMED 1858-09-22 21:00:00 TS 42.4802 -60.4604 main 299 282 P_____________ AL041858 42.4802 -60.4604 HU 80 1 16 56
1858260N18319 1858 13 NA NA NOT_NAMED 1858-09-23 00:00:00 TS 42.9000 -59.5000 80 hurdat_atl main 285 282 O_____________ hurdat_atl AL041858 42.9000 -59.5000 HU 80 1 16 62
1858260N18319 1858 13 NA NA NOT_NAMED 1858-09-23 03:00:00 TS 43.2301 -58.5265 main 303 300 P_____________ AL041858 43.2301 -58.5265 HU 80 1 15 67
1858260N18319 1858 13 NA NA NOT_NAMED 1858-09-23 06:00:00 TS 43.5000 -57.6000 80 hurdat_atl main 321 321 O_____________ hurdat_atl AL041858 43.5000 -57.6000 HU 80 1 13 67
1858260N18319 1858 13 NA NA NOT_NAMED 1858-09-23 09:00:00 TS 43.7406 -56.8550 main 343 312 P_____________ AL041858 43.7406 -56.8550 HU 75 1 12 65
1858260N18319 1858 13 NA NA NOT_NAMED 1858-09-23 12:00:00 TS 44.0000 -56.1000 70 hurdat_atl main 312 278 O_____________ hurdat_atl AL041858 44.0000 -56.1000 HU 70 1 14 63
1858260N18319 1858 13 NA NA NOT_NAMED 1858-09-23 15:00:00 TS 44.3494 -55.1605 main 280 216 P_____________ AL041858 44.3494 -55.1605 HU 70 1 16 64
1858260N18319 1858 13 NA NA NOT_NAMED 1858-09-23 18:00:00 TS 44.7000 -54.1000 70 hurdat_atl main 214 178 O_____________ hurdat_atl AL041858 44.7000 -54.1000 HU 70 1 17 69
1858260N18319 1858 13 NA NA NOT_NAMED 1858-09-23 21:00:00 TS 44.9655 -52.9340 main 179 175 P_____________ AL041858 44.9655 -52.9340 HU 65 1 17 73
1858260N18319 1858 13 NA NA NOT_NAMED 1858-09-24 00:00:00 TS 45.2000 -51.8000 60 hurdat_atl main 189 189 O_____________ hurdat_atl AL041858 45.2000 -51.8000 TS 60 0 15 71
1858260N18319 1858 13 NA NA NOT_NAMED 1858-09-24 03:00:00 TS 45.4629 -50.8768 main 214 214 P_____________ AL041858 45.4629 -50.8768 TS 60 0 14 68
1858260N18319 1858 13 NA NA NOT_NAMED 1858-09-24 06:00:00 TS 45.7000 -50.0000 60 hurdat_atl main 260 260 O_____________ hurdat_atl AL041858 45.7000 -50.0000 TS 60 0 13 73
1858260N18319 1858 13 NA NA NOT_NAMED 1858-09-24 09:00:00 TS 45.8477 -49.0722 main 318 318 P_____________ AL041858 45.8477 -49.0722 TS 55 0 14 78
1858260N18319 1858 13 NA NA NOT_NAMED 1858-09-24 12:00:00 TS 46.0000 -48.0000 50 hurdat_atl main 386 386 O_____________ hurdat_atl AL041858 46.0000 -48.0000 TS 50 0 17 77
1858260N18319 1858 13 NA NA NOT_NAMED 1858-09-24 15:00:00 TS 46.2300 -46.6796 main 469 469 P_____________ AL041858 46.2300 -46.6796 TS 50 0 20 76
1858260N18319 1858 13 NA NA NOT_NAMED 1858-09-24 18:00:00 TS 46.5000 -45.2000 50 hurdat_atl main 569 O_____________ hurdat_atl AL041858 46.5000 -45.2000 TS 50 0 21 75

IBTrACS Databaseについて

本データベースは、米国NOAAが公開する1842年以降の世界の熱帯低気圧のベストトラックデータアーカイブInternational Best Track Archive for Climate Stewardship (IBTrACS)を、ウェブで閲覧しやすい形式に変換したものです。

最終更新日:2021-10-25